Time;durP1;ratioP1;P1;durP2;ratioP2;P2;SDS_P1;SDS_P2;PMS_P1;PMS_P2;Temp;Humidity;BMP_temperature;BMP_pressure;BME280_temperature;BME280_humidity;BME280_pressure;Samples;Min_cycle;Max_cycle;Signal;HPM_P1;HPM_P2
2022/12/14 00:01:51;;;;;;;12.55;7.70;;;1.80;62.10;;;;;;5003061;28;20048;-55
2022/12/14 00:04:25;;;;;;;11.77;7.95;;;1.70;61.90;;;;;;5003303;28;20046;-55
2022/12/14 00:06:54;;;;;;;12.18;7.68;;;1.70;61.80;;;;;;4998743;28;20430;-55
2022/12/14 00:09:23;;;;;;;9.88;4.80;;;1.80;61.90;;;;;;4990853;28;20122;-54
2022/12/14 00:11:50;;;;;;;16.20;8.35;;;1.80;61.90;;;;;;5011505;28;20046;-55
2022/12/14 00:14:16;;;;;;;12.73;8.55;;;1.80;61.90;;;;;;4991271;28;20049;-54
2022/12/14 00:16:47;;;;;;;14.77;7.60;;;1.80;61.90;;;;;;4993603;28;20092;-55
2022/12/14 00:19:15;;;;;;;11.15;7.30;;;1.90;61.80;;;;;;4998175;28;20042;-55
2022/12/14 00:21:42;;;;;;;15.48;8.60;;;1.90;61.70;;;;;;4991529;28;20038;-55
2022/12/14 00:24:11;;;;;;;14.52;8.18;;;1.90;61.60;;;;;;4998203;28;20046;-54
2022/12/14 00:26:40;;;;;;;14.40;8.20;;;1.90;61.50;;;;;;4989677;28;20039;-55
2022/12/14 00:29:07;;;;;;;14.88;7.88;;;1.90;61.50;;;;;;4988828;28;20587;-55
2022/12/14 00:31:35;;;;;;;15.80;8.40;;;1.90;61.60;;;;;;5004115;28;20624;-55
2022/12/14 00:34:04;;;;;;;13.95;8.20;;;1.90;61.50;;;;;;5001743;28;20042;-54
2022/12/14 00:36:35;;;;;;;16.63;8.07;;;2.00;61.50;;;;;;4995016;28;20046;-53
2022/12/14 00:39:02;;;;;;;12.90;8.32;;;2.00;61.50;;;;;;5002216;28;20052;-55
2022/12/14 00:41:32;;;;;;;12.70;7.50;;;2.00;61.60;;;;;;5004320;28;20053;-54
2022/12/14 00:43:58;;;;;;;11.38;7.07;;;2.00;61.60;;;;;;5010660;28;20045;-55
2022/12/14 00:46:28;;;;;;;10.80;7.18;;;2.00;61.70;;;;;;4996388;28;20398;-55
2022/12/14 00:48:55;;;;;;;12.30;7.40;;;2.00;61.70;;;;;;5002482;28;20481;-55
2022/12/14 00:51:21;;;;;;;11.23;7.53;;;2.00;61.60;;;;;;4971994;28;20566;-55
2022/12/14 00:53:50;;;;;;;14.80;8.57;;;2.00;61.50;;;;;;4984486;28;20130;-55
2022/12/14 00:56:19;;;;;;;13.75;8.35;;;2.00;61.50;;;;;;4999946;28;20055;-55
2022/12/14 00:58:51;;;;;;;13.35;7.85;;;2.20;61.60;;;;;;4991036;28;20038;-55
2022/12/14 01:01:19;;;;;;;14.90;8.02;;;2.10;61.50;;;;;;4991141;28;20046;-55
2022/12/14 01:03:48;;;;;;;11.13;7.40;;;2.10;61.50;;;;;;4984832;28;20396;-55
2022/12/14 01:06:22;;;;;;;12.48;7.45;;;2.10;61.30;;;;;;4998312;28;20490;-55
2022/12/14 01:08:51;;;;;;;12.02;7.20;;;2.10;61.30;;;;;;5002118;28;20049;-55
2022/12/14 01:11:18;;;;;;;10.38;7.03;;;2.10;61.40;;;;;;4989403;28;20495;-55
2022/12/14 01:13:47;;;;;;;12.02;7.80;;;2.10;61.30;;;;;;4987587;28;20046;-54
2022/12/14 01:16:18;;;;;;;13.17;7.90;;;2.20;61.20;;;;;;5001539;28;21222;-55
2022/12/14 01:18:45;;;;;;;12.02;7.88;;;2.10;61.10;;;;;;5006563;28;20461;-53
2022/12/14 01:21:22;;;;;;;10.38;6.43;;;2.10;61.10;;;;;;4989054;28;20053;-53
2022/12/14 01:24:00;;;;;;;11.85;6.88;;;2.30;61.00;;;;;;5001962;28;20550;-53
2022/12/14 01:26:34;;;;;;;12.27;7.45;;;2.10;60.60;;;;;;4975033;28;20070;-54
2022/12/14 01:29:05;;;;;;;10.60;6.43;;;2.10;60.70;;;;;;4983498;28;20047;-55
2022/12/14 01:31:36;;;;;;;10.23;5.85;;;2.10;60.60;;;;;;5000960;28;20049;-55
2022/12/14 01:34:14;;;;;;;10.68;7.10;;;2.00;60.60;;;;;;5003931;28;20495;-52
2022/12/14 01:36:48;;;;;;;10.85;6.63;;;2.00;60.50;;;;;;5012698;28;20076;-55
2022/12/14 01:39:15;;;;;;;10.10;6.70;;;1.90;60.50;;;;;;4998325;28;20058;-55
2022/12/14 01:41:51;;;;;;;9.32;6.63;;;1.90;60.50;;;;;;5005247;28;20054;-55
2022/12/14 01:44:20;;;;;;;12.63;7.03;;;1.90;60.50;;;;;;5013360;28;20124;-55
2022/12/14 01:46:59;;;;;;;10.80;7.18;;;1.80;60.40;;;;;;5013813;28;20653;-55
2022/12/14 01:49:37;;;;;;;14.52;7.00;;;1.80;60.40;;;;;;4993718;28;20042;-54
2022/12/14 01:52:36;;;;;;;12.85;6.78;;;1.80;60.30;;;;;;5004594;28;20038;-55
2022/12/14 01:55:14;;;;;;;10.55;6.68;;;1.80;60.30;;;;;;5001945;28;20092;-55
2022/12/14 01:57:50;;;;;;;;;;;1.70;60.70;;;;;;4992137;28;20429;-54
2022/12/14 02:00:17;;;;;;;7.68;5.22;;;1.80;60.50;;;;;;5001327;28;19930;-55
2022/12/14 02:02:57;;;;;;;12.48;7.13;;;1.70;60.90;;;;;;5008361;28;20046;-54
2022/12/14 02:05:24;;;;;;;11.65;6.97;;;1.70;60.80;;;;;;5013499;28;20096;-55
2022/12/14 02:07:57;;;;;;;11.98;7.40;;;1.70;61.00;;;;;;4987592;28;20505;-55
2022/12/14 02:10:28;;;;;;;10.38;6.63;;;1.70;61.00;;;;;;4995698;28;20077;-55
2022/12/14 02:13:22;;;;;;;9.70;6.03;;;1.70;61.10;;;;;;5005460;28;20054;-55
2022/12/14 02:15:51;;;;;;;9.35;5.80;;;1.70;61.00;;;;;;5013212;28;20308;-55
2022/12/14 02:18:26;;;;;;;10.98;6.15;;;1.70;61.10;;;;;;4996152;28;20067;-55
2022/12/14 02:21:17;;;;;;;13.18;6.90;;;1.80;61.20;;;;;;5001878;28;20049;-55
2022/12/14 02:24:06;;;;;;;9.48;6.38;;;1.80;60.80;;;;;;4988353;28;20066;-55
2022/12/14 02:26:55;;;;;;;10.73;6.35;;;1.80;60.90;;;;;;4990487;28;20065;-55
2022/12/14 02:29:43;;;;;;;10.25;6.15;;;1.80;60.60;;;;;;4992465;28;20042;-55
2022/12/14 02:32:38;;;;;;;9.30;6.40;;;1.80;61.00;;;;;;5004445;28;20046;-55
2022/12/14 02:35:26;;;;;;;11.00;7.63;;;1.80;60.80;;;;;;5011238;28;20073;-54
2022/12/14 02:38:16;;;;;;;10.30;5.93;;;1.80;60.90;;;;;;5012519;28;20121;-53
2022/12/14 02:40:59;;;;;;;8.10;5.38;;;1.80;60.80;;;;;;4994193;28;20065;-55
2022/12/14 02:43:57;;;;;;;9.13;5.97;;;1.80;60.50;;;;;;4994158;28;20137;-55
2022/12/14 02:46:28;;;;;;;9.68;6.55;;;1.80;60.80;;;;;;4996621;28;20117;-55
2022/12/14 02:49:09;;;;;;;9.02;4.88;;;1.80;60.90;;;;;;5003522;28;20077;-55
2022/12/14 02:51:54;;;;;;;8.67;5.40;;;1.80;60.70;;;;;;4973560;28;20142;-55
2022/12/14 02:54:34;;;;;;;12.80;7.10;;;1.80;60.90;;;;;;4987242;28;20309;-55
2022/12/14 02:57:26;;;;;;;12.05;6.32;;;1.80;60.90;;;;;;4993255;28;20045;-55
2022/12/14 03:00:00;;;;;;;10.70;6.97;;;1.80;60.60;;;;;;4992682;28;20054;-55
2022/12/14 03:02:29;;;;;;;9.93;5.75;;;1.90;61.00;;;;;;4990511;28;20085;-54
2022/12/14 03:05:00;;;;;;;10.63;6.57;;;1.80;60.90;;;;;;4996061;28;20410;-54
2022/12/14 03:07:35;;;;;;;12.40;6.70;;;1.90;61.00;;;;;;5024054;28;20033;-53
2022/12/14 03:10:30;;;;;;;9.98;6.45;;;1.70;60.80;;;;;;5015513;28;20041;-55
2022/12/14 03:13:10;;;;;;;10.80;5.93;;;1.70;60.70;;;;;;5010082;28;20042;-54
2022/12/14 03:15:39;;;;;;;13.27;6.70;;;1.70;61.00;;;;;;5019649;28;20056;-56
2022/12/14 03:18:12;;;;;;;7.90;5.38;;;1.70;61.10;;;;;;5022312;28;20041;-55
2022/12/14 03:20:49;;;;;;;8.43;6.05;;;1.70;61.20;;;;;;5031772;28;20494;-55
2022/12/14 03:23:27;;;;;;;11.00;6.82;;;1.70;61.20;;;;;;5012435;28;20117;-54
2022/12/14 03:26:29;;;;;;;9.10;5.53;;;1.70;61.20;;;;;;5021658;28;20056;-54
2022/12/14 03:29:08;;;;;;;8.85;6.18;;;1.70;61.10;;;;;;5013829;28;20065;-55
2022/12/14 03:31:48;;;;;;;9.82;6.18;;;1.70;61.30;;;;;;5018772;28;20044;-55
2022/12/14 03:34:41;;;;;;;13.70;6.47;;;1.70;61.40;;;;;;5023267;28;20056;-55
2022/12/14 03:37:31;;;;;;;10.10;6.05;;;1.70;61.50;;;;;;5012053;28;20132;-55
2022/12/14 03:39:58;;;;;;;10.32;7.03;;;1.70;61.40;;;;;;5016338;28;20076;-54
2022/12/14 03:42:59;;;;;;;9.82;5.97;;;1.70;61.60;;;;;;5012190;28;20533;-55
2022/12/14 03:45:46;;;;;;;9.68;7.13;;;1.70;61.60;;;;;;5010589;28;20121;-52
2022/12/14 03:48:50;;;;;;;9.98;6.25;;;1.70;61.70;;;;;;5029754;28;20052;-55
2022/12/14 03:51:53;;;;;;;8.52;5.82;;;1.70;61.80;;;;;;4937011;29;20048;-55
2022/12/14 03:54:28;;;;;;;8.55;5.60;;;1.70;61.70;;;;;;5019541;28;20064;-54
2022/12/14 03:57:47;;;;;;;8.82;6.18;;;1.70;61.90;;;;;;5025627;28;20048;-53
2022/12/14 04:00:21;;;;;;;9.88;5.97;;;1.70;61.80;;;;;;4965393;28;20064;-55
2022/12/14 04:02:57;;;;;;;11.63;6.35;;;1.70;61.90;;;;;;4993534;28;20045;-55
2022/12/14 04:05:51;;;;;;;8.90;6.35;;;1.70;61.80;;;;;;5015842;28;20064;-55
2022/12/14 04:08:45;;;;;;;8.35;6.13;;;1.70;61.80;;;;;;5030360;28;20052;-55
2022/12/14 04:20:18;;;;;;;9.50;5.60;;;1.80;61.80;;;;;;5012191;28;20073;-55
2022/12/14 04:22:50;;;;;;;9.63;6.07;;;1.80;61.70;;;;;;5023610;28;20056;-54
2022/12/14 04:31:16;;;;;;;9.50;5.70;;;1.80;61.50;;;;;;5012823;28;20284;-55
2022/12/14 04:33:51;;;;;;;10.35;6.13;;;1.90;61.60;;;;;;5022052;28;20049;-56
2022/12/14 04:36:27;;;;;;;8.57;5.88;;;1.90;61.50;;;;;;5011839;28;20042;-55
2022/12/14 04:39:08;;;;;;;9.13;5.85;;;1.90;61.40;;;;;;5005573;28;20042;-56
2022/12/14 04:41:39;;;;;;;9.82;5.80;;;1.90;61.40;;;;;;5019211;28;20065;-52
2022/12/14 04:44:23;;;;;;;10.25;6.18;;;1.90;61.30;;;;;;5027947;28;20111;-52
2022/12/14 04:46:52;;;;;;;11.63;6.18;;;1.90;61.00;;;;;;5027372;28;20037;-55
2022/12/14 04:49:30;;;;;;;9.13;6.47;;;1.90;61.10;;;;;;5019002;28;20045;-52
2022/12/14 04:52:05;;;;;;;9.82;6.18;;;2.00;61.10;;;;;;5022297;28;20044;-56
2022/12/14 04:54:57;;;;;;;9.32;5.68;;;2.00;61.10;;;;;;5030799;28;20049;-54
2022/12/14 04:57:35;;;;;;;9.40;6.30;;;2.00;61.00;;;;;;5017462;28;20042;-55
2022/12/14 05:00:04;;;;;;;9.23;5.72;;;2.00;61.10;;;;;;4997212;28;20077;-55
2022/12/14 05:02:43;;;;;;;10.32;6.03;;;2.00;61.00;;;;;;5023703;28;20052;-55
2022/12/14 05:05:34;;;;;;;10.70;5.97;;;2.00;61.00;;;;;;5014377;28;20045;-56
2022/12/14 05:08:26;;;;;;;9.68;5.63;;;2.00;60.90;;;;;;5023439;28;20379;-55
2022/12/14 05:11:08;;;;;;;8.82;6.05;;;2.00;60.80;;;;;;4995087;28;20129;-54
2022/12/14 05:13:54;;;;;;;14.77;6.85;;;2.00;60.80;;;;;;5007358;28;20062;-55
2022/12/14 05:16:23;;;;;;;10.93;6.53;;;2.00;61.00;;;;;;5017917;28;20059;-55
2022/12/14 05:18:52;;;;;;;6.72;5.80;;;2.00;60.90;;;;;;5018385;28;20120;-56
2022/12/14 05:24:07;;;;;;;8.85;5.40;;;2.10;61.10;;;;;;5010865;28;20078;-56
2022/12/14 05:26:34;;;;;;;9.93;6.63;;;2.10;61.10;;;;;;5013876;28;20050;-55
2022/12/14 05:29:01;;;;;;;10.80;6.38;;;2.10;61.00;;;;;;5014176;28;20084;-54
2022/12/14 05:31:29;;;;;;;8.48;5.95;;;2.10;61.00;;;;;;5012496;28;20045;-55
2022/12/14 05:33:55;;;;;;;8.77;6.50;;;2.10;61.00;;;;;;5010077;28;20758;-54
2022/12/14 05:36:31;;;;;;;13.35;7.57;;;2.10;61.00;;;;;;5012976;28;20049;-55
2022/12/14 05:39:01;;;;;;;10.48;6.90;;;2.10;61.00;;;;;;5013734;28;20088;-54
2022/12/14 05:41:27;;;;;;;10.75;6.35;;;2.10;61.10;;;;;;4994158;28;20684;-54
2022/12/14 05:44:05;;;;;;;9.27;6.20;;;2.10;61.10;;;;;;5012244;28;20138;-55
2022/12/14 05:46:32;;;;;;;8.57;5.63;;;2.10;61.10;;;;;;5013512;28;20046;-55
2022/12/14 05:49:02;;;;;;;10.98;6.32;;;2.20;61.20;;;;;;5005850;28;20049;-56
2022/12/14 05:51:28;;;;;;;11.02;6.40;;;2.10;61.20;;;;;;5009517;28;20506;-52
2022/12/14 05:53:57;;;;;;;10.40;6.00;;;2.10;61.20;;;;;;5011478;28;20042;-54
2022/12/14 05:56:23;;;;;;;10.60;6.35;;;2.10;61.10;;;;;;5013664;28;20045;-56
2022/12/14 05:58:50;;;;;;;10.40;6.47;;;2.10;61.20;;;;;;5009248;28;20136;-55
2022/12/14 06:01:17;;;;;;;11.70;6.40;;;2.10;61.10;;;;;;5015070;28;20532;-55
2022/12/14 06:03:45;;;;;;;9.90;6.30;;;2.10;61.10;;;;;;5026066;28;20042;-54
2022/12/14 06:06:13;;;;;;;9.73;6.05;;;2.10;61.20;;;;;;5020180;28;20077;-55
2022/12/14 06:08:43;;;;;;;8.32;6.43;;;2.10;61.20;;;;;;5014932;28;20125;-54
2022/12/14 06:11:21;;;;;;;12.98;6.47;;;2.10;61.10;;;;;;5021224;28;20048;-54
2022/12/14 06:13:48;;;;;;;10.63;6.72;;;2.10;61.00;;;;;;5006256;28;20046;-52
2022/12/14 06:16:20;;;;;;;11.00;7.22;;;2.10;61.10;;;;;;5022192;28;20042;-54
2022/12/14 06:18:48;;;;;;;;;;;2.20;61.10;;;;;;5026922;28;20041;-52
2022/12/14 06:21:16;;;;;;;8.90;5.82;;;2.20;60.90;;;;;;5032878;28;20015;-53
2022/12/14 06:23:44;;;;;;;9.98;6.30;;;2.20;61.10;;;;;;5014432;28;20056;-54
2022/12/14 06:26:12;;;;;;;10.98;7.20;;;2.20;61.10;;;;;;5021681;28;20041;-53
2022/12/14 06:28:39;;;;;;;10.13;6.43;;;2.20;61.00;;;;;;5032296;28;20037;-51
2022/12/14 06:31:06;;;;;;;8.95;6.38;;;2.20;61.10;;;;;;5016821;28;20053;-53
2022/12/14 06:33:34;;;;;;;11.30;6.32;;;2.20;61.20;;;;;;5054660;23;20053;-50
2022/12/14 06:36:05;;;;;;;11.30;6.25;;;2.20;61.20;;;;;;5038482;28;20097;-50
2022/12/14 06:38:34;;;;;;;11.32;6.68;;;2.20;61.30;;;;;;5040361;28;20050;-49
2022/12/14 06:41:06;;;;;;;14.57;6.60;;;2.10;61.20;;;;;;5026273;28;20498;-52
2022/12/14 06:43:33;;;;;;;13.25;7.25;;;2.20;61.30;;;;;;5031321;28;20052;-55
2022/12/14 06:45:59;;;;;;;16.23;7.45;;;2.20;62.00;;;;;;5034380;28;20049;-50
2022/12/14 06:48:26;;;;;;;12.27;7.65;;;2.20;61.40;;;;;;5035856;28;20040;-50
2022/12/14 06:50:59;;;;;;;14.02;7.28;;;2.20;61.50;;;;;;5019863;28;20048;-52
2022/12/14 06:53:26;;;;;;;14.23;7.70;;;2.20;61.40;;;;;;5037770;28;20040;-53
2022/12/14 06:55:53;;;;;;;10.15;6.63;;;2.20;61.50;;;;;;5033401;28;20042;-52
2022/12/14 06:58:20;;;;;;;11.85;6.97;;;2.20;61.50;;;;;;5045067;28;20126;-51
2022/12/14 07:00:46;;;;;;;11.23;6.50;;;2.20;61.50;;;;;;5038007;28;20049;-50
2022/12/14 07:03:13;;;;;;;8.02;6.22;;;2.20;61.60;;;;;;5026923;28;20048;-49
2022/12/14 07:05:39;;;;;;;13.32;6.78;;;2.20;61.60;;;;;;5049476;28;20048;-51
2022/12/14 07:08:14;;;;;;;10.27;6.15;;;2.20;61.60;;;;;;5035515;28;20038;-54
2022/12/14 07:10:41;;;;;;;12.00;7.78;;;2.20;61.70;;;;;;5050359;28;20041;-52
2022/12/14 07:13:07;;;;;;;11.52;6.97;;;2.20;61.80;;;;;;5044811;28;20394;-53
2022/12/14 07:15:34;;;;;;;10.25;6.75;;;2.20;61.90;;;;;;5041756;28;20144;-50
2022/12/14 07:18:00;;;;;;;10.85;7.45;;;2.20;61.80;;;;;;5043583;28;20096;-51
2022/12/14 07:20:27;;;;;;;12.00;7.35;;;2.10;61.80;;;;;;5037269;28;20040;-55
2022/12/14 07:22:57;;;;;;;11.93;7.57;;;2.20;61.80;;;;;;5042510;28;20045;-51
2022/12/14 07:25:23;;;;;;;10.77;7.38;;;2.20;61.80;;;;;;5035541;28;20053;-54
2022/12/14 07:27:50;;;;;;;10.75;7.38;;;2.20;61.80;;;;;;5032014;28;20136;-51
2022/12/14 07:30:17;;;;;;;11.57;7.63;;;2.20;61.90;;;;;;5050537;28;20559;-52
2022/12/14 07:32:44;;;;;;;11.63;6.68;;;2.20;62.00;;;;;;5034730;28;20120;-51
2022/12/14 07:35:11;;;;;;;10.10;6.93;;;2.20;62.10;;;;;;5030482;28;20041;-50
2022/12/14 07:37:42;;;;;;;11.30;7.00;;;2.20;62.20;;;;;;5042922;28;20573;-52
2022/12/14 07:40:14;;;;;;;11.25;7.30;;;2.20;62.20;;;;;;5049719;28;20065;-55
2022/12/14 07:42:41;;;;;;;12.55;7.60;;;2.20;62.30;;;;;;5019382;28;20042;-50
2022/12/14 07:45:09;;;;;;;11.10;7.22;;;2.20;62.20;;;;;;5015084;28;20121;-51
2022/12/14 07:47:35;;;;;;;9.77;7.00;;;2.20;62.20;;;;;;5036458;28;20041;-53
2022/12/14 07:50:02;;;;;;;10.63;7.30;;;2.20;62.40;;;;;;5049638;28;20049;-54
2022/12/14 07:52:29;;;;;;;12.15;7.35;;;2.10;62.40;;;;;;5034655;28;20037;-51
2022/12/14 07:55:03;;;;;;;11.88;7.43;;;2.30;63.20;;;;;;5049851;28;20608;-49
2022/12/14 07:57:30;;;;;;;11.55;7.78;;;2.20;62.60;;;;;;5041143;28;20079;-50
2022/12/14 07:59:57;;;;;;;11.38;8.13;;;2.20;62.60;;;;;;5050028;28;20041;-54
2022/12/14 08:02:23;;;;;;;10.18;7.45;;;2.20;62.70;;;;;;5050851;28;20055;-52
2022/12/14 08:04:50;;;;;;;8.82;6.50;;;2.20;62.70;;;;;;5040715;28;20069;-52
2022/12/14 08:07:19;;;;;;;12.23;7.60;;;2.20;62.80;;;;;;5051159;28;20041;-52
2022/12/14 08:09:47;;;;;;;12.43;7.85;;;2.20;62.80;;;;;;5049343;28;20045;-53
2022/12/14 08:12:14;;;;;;;10.73;6.95;;;2.20;62.80;;;;;;5035700;28;20489;-51
2022/12/14 08:14:41;;;;;;;12.48;7.90;;;2.20;62.90;;;;;;5045102;28;20072;-52
2022/12/14 08:17:08;;;;;;;12.35;8.15;;;2.20;62.90;;;;;;5050586;28;20510;-55
2022/12/14 08:19:35;;;;;;;10.77;6.72;;;2.20;62.90;;;;;;5039913;28;20049;-51
2022/12/14 08:22:01;;;;;;;9.90;7.60;;;2.20;63.00;;;;;;5041974;28;20076;-53
2022/12/14 08:24:28;;;;;;;13.18;7.85;;;2.20;63.10;;;;;;5033080;28;20043;-54
2022/12/14 08:26:55;;;;;;;10.48;6.75;;;2.20;62.90;;;;;;5039663;28;20053;-52
2022/12/14 08:29:23;;;;;;;9.85;7.07;;;2.30;63.00;;;;;;5047927;28;20115;-52
2022/12/14 08:31:53;;;;;;;13.05;7.38;;;2.30;63.00;;;;;;5040873;28;20048;-50
2022/12/14 08:34:23;;;;;;;11.60;7.63;;;2.30;62.90;;;;;;5048980;28;20069;-53
2022/12/14 08:36:49;;;;;;;14.13;8.43;;;2.30;63.00;;;;;;5041528;28;20049;-51
2022/12/14 08:39:16;;;;;;;13.48;8.40;;;2.40;63.00;;;;;;5032592;28;20497;-53
2022/12/14 08:41:44;;;;;;;14.10;8.02;;;2.40;62.90;;;;;;5040826;28;20684;-51
2022/12/14 08:44:12;;;;;;;12.85;7.40;;;2.40;62.90;;;;;;5047320;28;20404;-51
2022/12/14 08:46:41;;;;;;;11.07;6.90;;;2.40;62.80;;;;;;5049084;28;20482;-51
2022/12/14 08:49:07;;;;;;;9.60;7.00;;;2.40;62.80;;;;;;5036834;28;20686;-55
2022/12/14 08:51:38;;;;;;;10.63;7.28;;;2.50;63.50;;;;;;5050026;28;20043;-52
2022/12/14 08:54:05;;;;;;;11.25;6.82;;;2.50;62.80;;;;;;5048840;28;20037;-55
2022/12/14 08:56:31;;;;;;;12.52;7.40;;;2.60;62.70;;;;;;5032086;28;20045;-55
2022/12/14 08:58:58;;;;;;;11.65;6.90;;;2.60;62.70;;;;;;5048410;28;20548;-55
2022/12/14 09:01:27;;;;;;;10.13;6.95;;;2.60;62.60;;;;;;5040220;28;20643;-53
2022/12/14 09:04:05;;;;;;;11.35;7.70;;;2.60;62.50;;;;;;5048811;28;20044;-54
2022/12/14 09:06:34;;;;;;;7.57;5.47;;;2.70;62.30;;;;;;5010167;28;20042;-52
2022/12/14 09:09:01;;;;;;;13.27;8.85;;;2.70;62.20;;;;;;5009625;28;20074;-54
2022/12/14 09:11:28;;;;;;;12.00;7.88;;;2.80;62.20;;;;;;5038458;28;20116;-53
2022/12/14 09:13:55;;;;;;;11.95;7.43;;;2.80;62.10;;;;;;5037227;28;20069;-51
2022/12/14 09:16:25;;;;;;;10.63;6.97;;;2.80;62.00;;;;;;5030099;28;20071;-54
2022/12/14 09:18:52;;;;;;;11.18;8.15;;;2.80;62.00;;;;;;5024131;28;20099;-50
2022/12/14 09:21:18;;;;;;;12.98;9.55;;;2.80;61.90;;;;;;5043810;28;20064;-51
2022/12/14 09:23:45;;;;;;;13.98;9.27;;;2.90;61.80;;;;;;5047606;28;20041;-51
2022/12/14 09:26:21;;;;;;;13.98;9.07;;;2.90;61.70;;;;;;5042144;28;20038;-54
2022/12/14 09:28:50;;;;;;;13.90;9.27;;;2.90;61.60;;;;;;5022130;28;20060;-51
2022/12/14 09:31:20;;;;;;;14.45;7.97;;;3.00;61.70;;;;;;5044722;28;20408;-51
2022/12/14 09:33:47;;;;;;;14.70;9.73;;;3.00;61.70;;;;;;5042544;28;20053;-51
2022/12/14 09:36:16;;;;;;;15.50;9.40;;;3.10;61.70;;;;;;5044936;28;20400;-52
2022/12/14 09:38:44;;;;;;;11.95;8.82;;;3.10;61.60;;;;;;5025733;28;20045;-52
2022/12/14 09:41:23;;;;;;;13.23;8.02;;;3.10;61.40;;;;;;5043310;28;20088;-55
2022/12/14 09:43:55;;;;;;;10.63;7.28;;;3.10;61.30;;;;;;5038899;28;20045;-55
2022/12/14 09:46:33;;;;;;;10.52;7.03;;;3.20;61.30;;;;;;5042680;28;20034;-53
2022/12/14 09:49:01;;;;;;;13.18;7.93;;;3.20;61.30;;;;;;5045153;28;20516;-55
2022/12/14 09:51:34;;;;;;;10.75;7.20;;;3.30;61.20;;;;;;5050906;28;20047;-55
2022/12/14 09:54:14;;;;;;;15.60;10.18;;;3.30;60.90;;;;;;5051914;28;20041;-51
2022/12/14 09:56:43;;;;;;;14.30;9.07;;;3.30;60.60;;;;;;5039404;28;20620;-55
2022/12/14 09:59:15;;;;;;;17.45;8.82;;;3.30;60.60;;;;;;5043392;28;20072;-51
2022/12/14 10:02:27;;;;;;;13.88;8.38;;;3.30;60.40;;;;;;5053641;28;20489;-51
2022/12/14 10:05:28;;;;;;;13.13;8.13;;;3.20;59.70;;;;;;5038373;28;20463;-53
2022/12/14 10:08:04;;;;;;;12.27;8.60;;;3.20;59.60;;;;;;5044669;28;20469;-51
2022/12/14 10:10:41;;;;;;;12.43;7.57;;;3.10;59.80;;;;;;5012894;28;20129;-55
2022/12/14 10:13:08;;;;;;;14.20;7.93;;;3.10;60.00;;;;;;5019652;28;20070;-55
2022/12/14 10:16:02;;;;;;;11.90;9.05;;;3.00;60.10;;;;;;5045683;28;20041;-51
2022/12/14 10:18:58;;;;;;;12.45;9.13;;;2.90;60.00;;;;;;5060258;28;20447;-53
2022/12/14 10:22:02;;;;;;;13.95;7.85;;;2.90;60.30;;;;;;5058718;28;20128;-52
2022/12/14 10:24:37;;;;;;;12.35;8.15;;;2.90;60.30;;;;;;4972348;28;20057;-51
2022/12/14 10:27:06;;;;;;;12.20;8.13;;;2.90;60.60;;;;;;5053055;28;20056;-52
2022/12/14 10:29:49;;;;;;;13.85;9.02;;;2.80;60.60;;;;;;5069531;28;20455;-51
2022/12/14 10:32:32;;;;;;;10.07;7.55;;;2.80;60.60;;;;;;5072493;28;20041;-53
2022/12/14 10:35:14;;;;;;;14.68;8.63;;;2.80;60.80;;;;;;5047418;28;20094;-51
2022/12/14 10:37:50;;;;;;;13.13;8.07;;;2.80;60.90;;;;;;5065087;28;20048;-53
2022/12/14 10:40:26;;;;;;;22.58;11.50;;;2.80;61.10;;;;;;5072144;28;20044;-53
2022/12/14 10:43:19;;;;;;;19.55;10.60;;;2.80;61.20;;;;;;5035651;28;20037;-55
2022/12/14 10:46:09;;;;;;;15.98;9.82;;;2.80;61.40;;;;;;5067086;28;20573;-54
2022/12/14 10:48:49;;;;;;;15.38;8.90;;;2.80;61.00;;;;;;5060403;28;20047;-52
2022/12/14 10:51:37;;;;;;;17.55;8.65;;;2.90;61.30;;;;;;5072155;28;20048;-53
2022/12/14 10:54:32;;;;;;;14.43;9.15;;;2.90;61.30;;;;;;5058033;28;20090;-52
2022/12/14 10:56:59;;;;;;;14.00;8.63;;;2.90;61.40;;;;;;5060835;28;20044;-52
2022/12/14 10:59:32;;;;;;;16.83;7.93;;;3.00;61.60;;;;;;5058554;28;20112;-51
2022/12/14 11:02:15;;;;;;;15.07;9.52;;;3.10;61.60;;;;;;5055055;28;20040;-54
2022/12/14 11:04:47;;;;;;;12.48;8.05;;;3.10;61.60;;;;;;5057633;28;20048;-51
2022/12/14 11:07:17;;;;;;;15.75;8.93;;;3.20;61.60;;;;;;5056792;28;20452;-53
2022/12/14 11:09:44;;;;;;;14.20;8.95;;;3.30;61.60;;;;;;5048992;28;20055;-51
2022/12/14 11:12:14;;;;;;;14.10;9.18;;;3.30;61.40;;;;;;5046672;28;20045;-52
2022/12/14 11:15:00;;;;;;;16.00;9.25;;;3.40;61.20;;;;;;5069856;28;20581;-54
2022/12/14 11:17:31;;;;;;;12.85;8.65;;;3.50;61.10;;;;;;5069877;28;20056;-52
2022/12/14 11:20:08;;;;;;;15.35;8.60;;;3.50;61.00;;;;;;5070066;28;20547;-52
2022/12/14 11:22:45;;;;;;;17.40;8.48;;;3.60;60.70;;;;;;5051460;28;20048;-51
2022/12/14 11:25:33;;;;;;;12.88;8.52;;;3.70;60.60;;;;;;5059257;28;20037;-50
2022/12/14 11:28:34;;;;;;;14.57;9.75;;;3.80;60.30;;;;;;5063264;28;20044;-53
2022/12/14 11:31:09;;;;;;;14.85;9.30;;;3.80;60.10;;;;;;5056157;28;20103;-55
2022/12/14 11:33:47;;;;;;;15.65;9.30;;;3.80;60.40;;;;;;5049040;28;20916;-54
2022/12/14 11:36:33;;;;;;;13.25;9.05;;;3.80;60.10;;;;;;5062581;28;20120;-55
2022/12/14 11:39:11;;;;;;;14.50;9.60;;;3.80;59.90;;;;;;5029882;28;20048;-54
2022/12/14 11:41:45;;;;;;;15.10;9.25;;;3.80;60.10;;;;;;5045581;28;20493;-53
2022/12/14 11:44:14;;;;;;;13.15;9.32;;;3.90;59.90;;;;;;5042506;28;20477;-55
2022/12/14 11:46:57;;;;;;;16.42;9.65;;;3.80;60.00;;;;;;5038447;28;20059;-53
2022/12/14 11:49:39;;;;;;;14.20;8.98;;;3.80;59.70;;;;;;5046525;28;20036;-55
2022/12/14 11:52:12;;;;;;;17.52;9.68;;;3.80;59.60;;;;;;5065638;28;20599;-55
2022/12/14 11:54:47;;;;;;;19.83;10.52;;;3.80;59.70;;;;;;5060969;28;20120;-53
2022/12/14 11:57:24;;;;;;;17.25;9.90;;;3.80;59.70;;;;;;5040091;28;20044;-52
2022/12/14 12:00:00;;;;;;;17.88;10.02;;;3.80;59.70;;;;;;5063058;28;20112;-54
2022/12/14 12:02:30;;;;;;;14.65;9.80;;;3.70;59.30;;;;;;5059151;28;20136;-52
2022/12/14 12:05:08;;;;;;;14.60;9.23;;;3.70;59.40;;;;;;5069248;28;20531;-52
2022/12/14 12:07:39;;;;;;;13.75;8.90;;;3.70;59.40;;;;;;5053374;28;20047;-51
2022/12/14 12:10:19;;;;;;;18.42;9.85;;;3.60;59.40;;;;;;5063809;28;20048;-53
2022/12/14 12:13:15;;;;;;;15.80;9.73;;;3.60;59.20;;;;;;5064063;28;20042;-53
2022/12/14 12:15:51;;;;;;;13.57;8.80;;;3.60;59.00;;;;;;5069826;28;20123;-53
2022/12/14 12:18:34;;;;;;;15.60;9.07;;;3.50;59.30;;;;;;5036777;28;20049;-52
2022/12/14 12:21:17;;;;;;;14.75;9.50;;;3.50;59.20;;;;;;5069795;28;20054;-55
2022/12/14 12:24:24;;;;;;;20.13;10.45;;;3.50;59.50;;;;;;5040818;28;20123;-51
2022/12/14 12:26:51;;;;;;;16.75;9.80;;;3.40;59.20;;;;;;5035151;28;20084;-51
2022/12/14 12:29:45;;;;;;;18.77;9.95;;;3.40;59.50;;;;;;5068265;28;20678;-53
2022/12/14 12:32:19;;;;;;;15.02;9.65;;;3.40;59.20;;;;;;5052635;28;20045;-55
2022/12/14 12:34:59;;;;;;;13.23;10.00;;;3.40;59.60;;;;;;5049652;28;20041;-54
2022/12/14 12:37:49;;;;;;;14.82;8.95;;;3.40;59.40;;;;;;5043386;28;20045;-53
2022/12/14 12:40:21;;;;;;;16.60;9.18;;;3.30;59.40;;;;;;5040182;28;20048;-54
2022/12/14 12:43:12;;;;;;;13.35;9.32;;;3.30;59.60;;;;;;5037468;28;20045;-56
2022/12/14 12:45:50;;;;;;;17.05;10.30;;;3.30;59.30;;;;;;5046479;28;20072;-54
2022/12/14 12:48:39;;;;;;;14.73;9.75;;;3.30;59.50;;;;;;5044705;28;20044;-51
2022/12/14 12:51:17;;;;;;;14.10;8.98;;;3.30;59.40;;;;;;5040947;28;20037;-51
2022/12/14 12:53:48;;;;;;;13.32;9.07;;;3.30;60.20;;;;;;5044856;28;20048;-53
2022/12/14 12:56:21;;;;;;;19.42;10.38;;;3.30;59.70;;;;;;5050117;28;20059;-54
2022/12/14 12:58:50;;;;;;;14.98;9.45;;;3.30;59.70;;;;;;5080455;22;20041;-52
2022/12/14 13:01:39;;;;;;;10.85;6.60;;;3.20;59.80;;;;;;5037133;28;20413;-51
2022/12/14 13:04:10;;;;;;;14.82;9.07;;;3.30;59.60;;;;;;5025067;28;20037;-49
2022/12/14 13:07:04;;;;;;;16.60;9.73;;;3.30;59.90;;;;;;5029958;28;20044;-52
2022/12/14 13:09:39;;;;;;;14.85;9.68;;;3.30;59.70;;;;;;5033228;28;20064;-49
2022/12/14 13:12:19;;;;;;;18.05;11.52;;;3.30;59.70;;;;;;5033963;28;20406;-49
2022/12/14 13:14:48;;;;;;;15.13;9.38;;;3.30;59.70;;;;;;5016321;28;20113;-48
2022/12/14 13:17:34;;;;;;;17.55;9.25;;;3.30;59.70;;;;;;5031861;28;20065;-51
2022/12/14 13:20:06;;;;;;;18.55;10.05;;;3.30;59.50;;;;;;5020124;28;20120;-50
2022/12/14 13:22:35;;;;;;;15.75;10.10;;;3.30;59.60;;;;;;5027440;28;20041;-51
2022/12/14 13:25:11;;;;;;;16.75;9.00;;;3.30;59.60;;;;;;5030165;28;20056;-49
2022/12/14 13:28:06;;;;;;;14.85;9.70;;;3.30;59.60;;;;;;5032492;28;20045;-51
2022/12/14 13:30:57;;;;;;;16.83;10.02;;;3.30;59.50;;;;;;5025907;28;20083;-49
2022/12/14 13:33:29;;;;;;;15.75;9.32;;;3.30;59.20;;;;;;5031845;28;20052;-51
2022/12/14 13:36:30;;;;;;;14.35;8.90;;;3.30;59.30;;;;;;5031742;28;20409;-53
2022/12/14 13:39:09;;;;;;;13.63;9.85;;;3.30;58.00;;;;;;5021040;28;20437;-49
2022/12/14 13:41:46;;;;;;;12.02;8.02;;;3.30;58.20;;;;;;5026234;28;20049;-54
2022/12/14 13:44:43;;;;;;;18.38;9.48;;;3.30;58.80;;;;;;5030413;28;20128;-51
2022/12/14 13:47:24;;;;;;;16.75;9.95;;;3.30;58.30;;;;;;5029038;28;20037;-53